Time;durP1;ratioP1;P1;durP2;ratioP2;P2;SDS_P1;SDS_P2;PMS_P1;PMS_P2;Temp;Humidity;BMP_temperature;BMP_pressure;BME280_temperature;BME280_humidity;BME280_pressure;Samples;Min_cycle;Max_cycle;Signal;HPM_P1;HPM_P2
2023/03/13 00:02:16;;;;;;;0.00;0.00;;;;;;;10.26;100.00;98441.50;6182480;23;20099;-76
2023/03/13 00:04:47;;;;;;;0.00;0.00;;;;;;;10.18;100.00;98402.09;6184762;23;20008;-76
2023/03/13 00:07:22;;;;;;;;;;;;;;;;;;;;;
2023/03/13 00:09:51;;;;;;;0.10;0.10;;;;;;;10.28;100.00;98396.38;6187306;23;20072;-76
2023/03/13 00:12:33;;;;;;;;;;;;;;;;;;;;;
2023/03/13 00:14:59;;;;;;;0.00;0.00;;;;;;;10.21;100.00;98400.66;6211440;23;20075;-76
2023/03/13 00:17:40;;;;;;;;;;;;;;;;;;;;;
2023/03/13 00:20:08;;;;;;;0.00;0.00;;;;;;;10.36;100.00;98353.03;6163428;23;20386;-74
2023/03/13 00:22:44;;;;;;;0.00;0.00;;;;;;;10.26;100.00;98333.03;6206635;23;20020;-75
2023/03/13 00:25:14;;;;;;;0.00;0.00;;;;;;;10.25;100.00;98339.63;6158730;23;20011;-75
2023/03/13 00:27:39;;;;;;;0.00;0.00;;;;;;;10.24;100.00;98346.22;6157301;23;20497;-75
2023/03/13 00:30:06;;;;;;;0.00;0.00;;;;;;;10.10;100.00;98361.88;6183758;23;19996;-76
2023/03/13 00:32:31;;;;;;;0.00;0.00;;;;;;;10.16;100.00;98385.19;6156705;23;20019;-77
2023/03/13 00:35:00;;;;;;;0.00;0.00;;;;;;;10.14;100.00;98341.03;6184418;23;20004;-76
2023/03/13 00:37:33;;;;;;;0.00;0.00;;;;;;;10.17;100.00;98373.16;6206615;23;20035;-77
2023/03/13 00:40:18;;;;;;;;;;;;;;;;;;;;;
2023/03/13 00:42:46;;;;;;;;;;;;;;;10.24;100.00;98395.38;6206511;23;20084;-74
2023/03/13 00:45:22;;;;;;;;;;;;;;;;;;;;;
2023/03/13 00:47:48;;;;;;;0.00;0.00;;;;;;;10.12;100.00;98356.94;6212007;23;20088;-75
2023/03/13 00:50:23;;;;;;;0.00;0.00;;;;;;;10.12;100.00;98351.47;6131631;23;20036;-74
2023/03/13 00:52:51;;;;;;;0.00;0.00;;;;;;;10.16;100.00;98340.69;6183765;23;20063;-77
2023/03/13 00:55:19;;;;;;;0.00;0.00;;;;;;;10.16;100.00;98349.69;6155472;23;20016;-76
2023/03/13 00:57:44;;;;;;;0.00;0.00;;;;;;;10.15;100.00;98348.09;6148815;23;20044;-77
2023/03/13 01:00:15;;;;;;;0.00;0.00;;;;;;;10.17;100.00;98324.00;6149803;23;20005;-75
2023/03/13 01:02:42;;;;;;;0.00;0.00;;;;;;;10.05;100.00;98332.00;6180648;23;20874;-74
2023/03/13 01:05:12;;;;;;;0.00;0.00;;;;;;;10.20;100.00;98345.22;6175700;23;20004;-75
2023/03/13 01:07:49;;;;;;;;;;;;;;;;;;;;;
2023/03/13 01:10:22;;;;;;;0.00;0.00;;;;;;;10.03;100.00;98328.75;6151861;23;20511;-75
2023/03/13 01:12:48;;;;;;;0.00;0.00;;;;;;;10.13;100.00;98372.16;6179298;23;20036;-75
2023/03/13 01:15:23;;;;;;;;;;;;;;;;;;;;;
2023/03/13 01:17:49;;;;;;;0.00;0.00;;;;;;;10.04;100.00;98322.97;6178168;23;20076;-76
2023/03/13 01:20:15;;;;;;;0.00;0.00;;;;;;;10.08;100.00;98307.56;6180008;23;20036;-76
2023/03/13 01:22:45;;;;;;;0.00;0.00;;;;;;;10.05;100.00;98310.16;6124511;23;20009;-75
2023/03/13 01:25:10;;;;;;;0.00;0.00;;;;;;;9.98;100.00;98296.13;6154565;23;20051;-75
2023/03/13 01:27:38;;;;;;;0.00;0.00;;;;;;;9.95;100.00;98301.09;6148711;23;20096;-75
2023/03/13 01:30:16;;;;;;;0.00;0.00;;;;;;;9.92;100.00;98285.34;6154349;23;20673;-75
2023/03/13 01:32:41;;;;;;;0.00;0.00;;;;;;;9.84;100.00;98244.34;6138486;23;20025;-76
2023/03/13 01:35:18;;;;;;;0.00;0.00;;;;;;;9.98;100.00;98266.09;6180086;23;20324;-76
2023/03/13 01:38:13;;;;;;;0.00;0.00;;;;;;;10.06;100.00;98270.78;6176064;23;21267;-75
2023/03/13 01:40:40;;;;;;;0.00;0.00;;;;;;;10.10;100.00;98279.94;6180104;23;20008;-75
2023/03/13 01:43:29;;;;;;;0.00;0.00;;;;;;;9.99;100.00;98289.53;6148971;23;20054;-74
2023/03/13 01:46:17;;;;;;;;;;;;;;;;;;;;;
2023/03/13 01:48:49;;;;;;;0.00;0.00;;;;;;;10.02;100.00;98250.69;6175623;23;20076;-74
2023/03/13 01:51:35;;;;;;;0.00;0.00;;;;;;;10.09;100.00;98261.94;6153570;23;20083;-75
2023/03/13 01:54:09;;;;;;;0.00;0.00;;;;;;;10.15;100.00;98266.16;6153537;23;20005;-75
2023/03/13 01:56:40;;;;;;;0.00;0.00;;;;;;;10.10;100.00;98277.22;6137567;23;20005;-74
2023/03/13 01:59:09;;;;;;;0.00;0.00;;;;;;;10.01;100.00;98233.50;6179668;23;20067;-74
2023/03/13 02:01:35;;;;;;;0.00;0.00;;;;;;;10.06;100.00;98306.28;6182168;23;20012;-75
2023/03/13 02:04:06;;;;;;;0.00;0.00;;;;;;;10.08;100.00;98254.91;6179193;23;20008;-74
2023/03/13 02:06:35;;;;;;;0.00;0.00;;;;;;;10.10;100.00;98248.00;6181504;23;20001;-75
2023/03/13 02:09:08;;;;;;;0.00;0.00;;;;;;;10.04;100.00;98253.91;6178162;23;20004;-75
2023/03/13 02:11:56;;;;;;;0.00;0.00;;;;;;;10.08;100.00;98235.78;6210955;23;20024;-75
2023/03/13 02:14:26;;;;;;;0.00;0.00;;;;;;;10.10;100.00;98288.97;6181127;23;20008;-75
2023/03/13 02:16:52;;;;;;;0.00;0.00;;;;;;;9.97;100.00;98248.91;6183101;23;20083;-75
2023/03/13 02:19:51;;;;;;;0.00;0.00;;;;;;;9.95;100.00;98208.25;6181114;23;20040;-76
2023/03/13 02:22:38;;;;;;;0.00;0.00;;;;;;;10.17;100.00;98269.38;6151157;23;20442;-78
2023/03/13 02:25:31;;;;;;;0.00;0.00;;;;;;;10.14;100.00;98216.19;6183228;23;20347;-76
2023/03/13 02:28:09;;;;;;;0.00;0.00;;;;;;;10.04;100.00;98221.16;6182346;23;20011;-75
2023/03/13 02:30:34;;;;;;;0.00;0.00;;;;;;;9.98;100.00;98189.66;6182815;23;20075;-74
2023/03/13 02:33:01;;;;;;;0.00;0.00;;;;;;;10.17;100.00;98227.63;6181769;23;20028;-76
2023/03/13 02:35:28;;;;;;;0.00;0.00;;;;;;;10.03;100.00;98195.78;6184687;23;20004;-76
2023/03/13 02:37:59;;;;;;;0.00;0.00;;;;;;;10.12;100.00;98212.19;6154805;23;20063;-77
2023/03/13 02:40:29;;;;;;;0.00;0.00;;;;;;;10.17;100.00;98203.81;6210780;23;20004;-77
2023/03/13 02:43:00;;;;;;;0.00;0.00;;;;;;;10.17;100.00;98263.13;6207103;23;20011;-75
2023/03/13 02:45:26;;;;;;;0.00;0.00;;;;;;;10.06;100.00;98183.38;6184064;23;20600;-78
2023/03/13 02:47:59;;;;;;;0.00;0.00;;;;;;;10.11;100.00;98172.34;6185499;23;20008;-77
2023/03/13 02:50:24;;;;;;;0.00;0.00;;;;;;;10.12;100.00;98176.69;6181153;23;20023;-77
2023/03/13 02:52:56;;;;;;;0.00;0.00;;;;;;;10.23;100.00;98188.09;6133598;23;20004;-76
2023/03/13 02:55:32;;;;;;;0.00;0.00;;;;;;;10.24;100.00;98176.84;6180209;23;20083;-76
2023/03/13 02:57:58;;;;;;;0.00;0.00;;;;;;;10.19;100.00;98160.63;6208356;23;20024;-74
2023/03/13 03:00:26;;;;;;;0.00;0.00;;;;;;;10.21;100.00;98196.63;6180086;23;20027;-76
2023/03/13 03:03:09;;;;;;;0.00;0.00;;;;;;;10.20;100.00;98137.63;6183536;23;20113;-76
2023/03/13 03:05:34;;;;;;;0.00;0.00;;;;;;;10.25;100.00;98156.63;6154618;23;20008;-75
2023/03/13 03:08:00;;;;;;;0.00;0.00;;;;;;;10.20;100.00;98156.75;6181336;23;20031;-76
2023/03/13 03:10:25;;;;;;;0.00;0.00;;;;;;;10.13;100.00;98148.22;6153907;23;20023;-76
2023/03/13 03:12:51;;;;;;;0.00;0.00;;;;;;;10.11;100.00;98164.13;6182216;23;20013;-76
2023/03/13 03:15:16;;;;;;;0.10;0.10;;;;;;;10.08;100.00;98162.84;6186717;23;20005;-76
2023/03/13 03:17:42;;;;;;;0.00;0.00;;;;;;;10.09;100.00;98161.72;6183166;23;20005;-76
2023/03/13 03:20:10;;;;;;;0.00;0.00;;;;;;;10.01;100.00;98134.41;6183656;23;20107;-76
2023/03/13 03:22:39;;;;;;;0.00;0.00;;;;;;;10.05;100.00;98157.22;6210530;23;20012;-75
2023/03/13 03:25:05;;;;;;;0.00;0.00;;;;;;;10.10;100.00;98137.94;6207180;23;20426;-75
2023/03/13 03:27:40;;;;;;;0.00;0.00;;;;;;;10.00;100.00;98132.78;6207884;23;20009;-75
2023/03/13 03:30:07;;;;;;;0.00;0.00;;;;;;;10.01;100.00;98107.09;6178916;23;20005;-75
2023/03/13 03:32:32;;;;;;;0.00;0.00;;;;;;;10.05;100.00;98113.53;6181787;23;20702;-75
2023/03/13 03:34:57;;;;;;;0.00;0.00;;;;;;;10.04;100.00;98128.31;6154464;23;20012;-75
2023/03/13 03:37:23;;;;;;;0.00;0.00;;;;;;;10.08;100.00;98129.28;6209953;23;20005;-75
2023/03/13 03:39:48;;;;;;;0.00;0.00;;;;;;;10.04;100.00;98128.31;6180468;23;20068;-75
2023/03/13 03:42:14;;;;;;;0.00;0.00;;;;;;;10.03;100.00;98134.88;6183582;23;20690;-75
2023/03/13 03:44:42;;;;;;;0.00;0.00;;;;;;;10.01;100.00;98090.72;6133787;23;20099;-74
2023/03/13 03:47:07;;;;;;;0.00;0.00;;;;;;;10.02;100.00;98093.13;6180081;23;20303;-73
2023/03/13 03:49:32;;;;;;;0.00;0.00;;;;;;;9.92;100.00;98126.19;6158298;23;20011;-74
2023/03/13 03:52:00;;;;;;;0.00;0.00;;;;;;;9.98;100.00;98080.44;6205626;23;20091;-74
2023/03/13 03:54:26;;;;;;;0.00;0.00;;;;;;;9.98;100.00;98069.53;6209873;23;20055;-73
2023/03/13 03:56:53;;;;;;;0.00;0.00;;;;;;;10.01;100.00;98082.53;6155790;23;20012;-73
2023/03/13 03:59:19;;;;;;;0.00;0.00;;;;;;;10.02;100.00;98087.66;6183349;23;20016;-75
2023/03/13 04:01:46;;;;;;;0.00;0.00;;;;;;;9.99;100.00;98092.94;6159751;23;20059;-73
2023/03/13 04:04:12;;;;;;;0.00;0.00;;;;;;;10.09;100.00;98100.81;6181405;23;20004;-73
2023/03/13 04:06:40;;;;;;;0.00;0.00;;;;;;;10.01;100.00;98086.06;6208328;23;20008;-74
2023/03/13 04:09:10;;;;;;;0.00;0.00;;;;;;;10.07;100.00;98067.59;6206046;23;20005;-74
2023/03/13 04:11:35;;;;;;;0.00;0.00;;;;;;;10.15;100.00;98096.84;6183921;23;20000;-74
2023/03/13 04:14:01;;;;;;;0.00;0.00;;;;;;;10.06;100.00;98065.97;6206814;23;20117;-74
2023/03/13 04:16:34;;;;;;;0.00;0.00;;;;;;;9.89;100.00;98056.66;6159243;23;20083;-75
2023/03/13 04:18:59;;;;;;;0.00;0.00;;;;;;;9.94;100.00;98059.25;6182650;23;20501;-75
2023/03/13 04:21:25;;;;;;;0.00;0.00;;;;;;;9.92;100.00;98093.44;6183978;23;20005;-75
2023/03/13 04:23:51;;;;;;;0.00;0.00;;;;;;;9.82;100.00;98056.31;6183322;23;20004;-75
2023/03/13 04:26:24;;;;;;;0.00;0.00;;;;;;;9.84;100.00;98034.97;6179824;23;20023;-75
2023/03/13 04:28:49;;;;;;;0.00;0.00;;;;;;;10.02;100.00;98108.72;6184773;23;20067;-75
2023/03/13 04:31:17;;;;;;;0.00;0.00;;;;;;;10.17;100.00;98072.75;6178625;23;20088;-75
2023/03/13 04:33:45;;;;;;;0.00;0.00;;;;;;;10.07;100.00;98045.75;6159803;23;20013;-75
2023/03/13 04:36:10;;;;;;;0.00;0.00;;;;;;;10.14;100.00;98046.88;6180050;23;20099;-75
2023/03/13 04:38:38;;;;;;;0.00;0.00;;;;;;;10.15;100.00;98110.50;6209854;23;20079;-75
2023/03/13 04:41:06;;;;;;;0.00;0.00;;;;;;;10.11;100.00;98038.53;6209984;23;20308;-75
2023/03/13 04:43:31;;;;;;;0.00;0.00;;;;;;;10.01;100.00;98047.03;6179236;23;20008;-75
2023/03/13 04:45:57;;;;;;;0.00;0.00;;;;;;;10.14;100.00;98046.06;6185262;23;20330;-76
2023/03/13 04:48:25;;;;;;;0.00;0.00;;;;;;;10.22;100.00;98063.56;6179414;23;20035;-75
2023/03/13 04:50:50;;;;;;;0.00;0.00;;;;;;;10.15;100.00;98053.16;6183085;23;20492;-75
2023/03/13 04:53:18;;;;;;;0.00;0.00;;;;;;;10.18;100.00;98090.75;6179920;23;20012;-75
2023/03/13 04:55:43;;;;;;;0.00;0.00;;;;;;;10.20;100.00;98063.91;6160160;23;20105;-76
2023/03/13 04:58:11;;;;;;;0.00;0.00;;;;;;;10.18;100.00;98063.44;6181885;23;20055;-75
2023/03/13 05:00:40;;;;;;;0.00;0.00;;;;;;;10.21;100.00;98072.91;6182709;23;20001;-74
2023/03/13 05:03:13;;;;;;;0.00;0.00;;;;;;;10.20;100.00;98080.28;6210313;23;20079;-75
2023/03/13 05:05:38;;;;;;;0.00;0.00;;;;;;;10.15;100.00;98058.59;6180508;23;20458;-75
2023/03/13 05:08:04;;;;;;;0.00;0.00;;;;;;;10.12;100.00;98045.59;6184208;23;20016;-74
2023/03/13 05:10:30;;;;;;;0.00;0.00;;;;;;;10.16;100.00;98027.41;6155379;23;20336;-75
2023/03/13 05:13:00;;;;;;;0.00;0.00;;;;;;;9.88;100.00;98022.28;6211166;23;20007;-75
2023/03/13 05:15:26;;;;;;;0.00;0.00;;;;;;;9.75;100.00;98039.59;6181495;23;20008;-75
2023/03/13 05:17:51;;;;;;;0.00;0.00;;;;;;;9.70;100.00;98045.22;6183974;23;20494;-76
2023/03/13 05:20:17;;;;;;;0.00;0.00;;;;;;;9.61;100.00;97980.53;6182322;23;20059;-77
2023/03/13 05:22:42;;;;;;;0.00;0.00;;;;;;;9.69;100.00;98058.06;6155507;23;20035;-76
2023/03/13 05:25:13;;;;;;;0.00;0.00;;;;;;;9.60;100.00;97998.00;6182526;23;20059;-75
2023/03/13 05:27:39;;;;;;;0.00;0.00;;;;;;;9.64;100.00;98011.00;6156383;23;20091;-74
2023/03/13 05:30:15;;;;;;;;;;;;;;;;;;;;;
2023/03/13 05:32:52;;;;;;;0.00;0.00;;;;;;;9.79;100.00;98014.09;6211902;23;20072;-74
2023/03/13 05:35:20;;;;;;;0.00;0.00;;;;;;;9.85;100.00;98044.75;6185411;23;20000;-76
2023/03/13 05:37:48;;;;;;;0.00;0.00;;;;;;;9.74;100.00;98005.28;6181565;23;20071;-77
2023/03/13 05:40:14;;;;;;;0.00;0.00;;;;;;;9.83;100.00;98008.81;6182759;23;20004;-75
2023/03/13 05:42:39;;;;;;;0.00;0.00;;;;;;;9.93;100.00;98013.94;6183837;23;20001;-76
2023/03/13 05:45:11;;;;;;;0.00;0.00;;;;;;;10.11;100.00;98030.34;6205116;23;20008;-76
2023/03/13 05:47:49;;;;;;;;;;;;;;;;;;;;;
2023/03/13 05:50:15;;;;;;;0.00;0.00;;;;;;;9.99;100.00;98017.31;6205864;23;20076;-76
2023/03/13 05:52:43;;;;;;;0.00;0.00;;;;;;;9.99;100.00;97987.28;6183371;23;20039;-77
2023/03/13 05:55:18;;;;;;;0.00;0.00;;;;;;;10.15;100.00;98014.91;6178674;23;20147;-77
2023/03/13 05:57:47;;;;;;;0.00;0.00;;;;;;;10.23;100.00;98051.53;6183114;23;20019;-77
2023/03/13 06:00:20;;;;;;;0.00;0.00;;;;;;;10.12;100.00;98015.56;6179322;23;20067;-77
2023/03/13 06:02:49;;;;;;;0.00;0.00;;;;;;;10.06;100.00;97984.88;6209073;23;20087;-77
2023/03/13 06:05:14;;;;;;;0.00;0.00;;;;;;;10.11;100.00;98013.94;6178623;23;20015;-77
2023/03/13 06:07:42;;;;;;;0.00;0.00;;;;;;;10.21;100.00;98057.31;6210546;23;20312;-76
2023/03/13 06:10:08;;;;;;;0.00;0.00;;;;;;;10.12;100.00;98038.19;6179459;23;20006;-77
2023/03/13 06:12:47;;;;;;;;;;;;;;;;;;;;;
2023/03/13 06:15:22;;;;;;;0.00;0.00;;;;;;;9.92;100.00;98006.88;6206075;23;20096;-77
2023/03/13 06:17:48;;;;;;;0.00;0.00;;;;;;;9.83;100.00;97997.88;6182685;23;20020;-76
2023/03/13 06:20:14;;;;;;;0.00;0.00;;;;;;;9.90;100.00;98038.34;6183235;23;20005;-76
2023/03/13 06:22:44;;;;;;;0.00;0.00;;;;;;;9.94;100.00;97996.44;6177167;23;20005;-76
2023/03/13 06:25:22;;;;;;;;;;;;;;;;;;;;;
2023/03/13 06:27:50;;;;;;;0.00;0.00;;;;;;;9.90;100.00;98003.66;6204816;23;20083;-75
2023/03/13 06:30:18;;;;;;;0.00;0.00;;;;;;;10.02;100.00;98037.72;6182912;23;20000;-76
2023/03/13 06:33:12;;;;;;;0.00;0.00;;;;;;;10.06;100.00;97968.50;6178787;23;20008;-76
2023/03/13 06:35:43;;;;;;;0.00;0.00;;;;;;;10.13;100.00;97995.31;6168368;23;20032;-78
2023/03/13 06:38:10;;;;;;;0.00;0.00;;;;;;;10.09;100.00;98032.56;6178867;23;20037;-77
2023/03/13 06:40:37;;;;;;;0.00;0.00;;;;;;;10.12;100.00;97986.31;6181958;23;20005;-77
2023/03/13 06:43:06;;;;;;;0.00;0.00;;;;;;;10.26;100.00;97999.00;6178269;23;20007;-76
2023/03/13 06:45:35;;;;;;;0.00;0.00;;;;;;;10.26;100.00;97988.84;6157743;23;20019;-77
2023/03/13 06:48:14;;;;;;;0.00;0.00;;;;;;;10.19;100.00;97966.72;6206314;23;20007;-77
2023/03/13 06:50:49;;;;;;;0.00;0.00;;;;;;;10.25;100.00;98014.59;6182202;23;20011;-76
2023/03/13 06:53:19;;;;;;;0.00;0.00;;;;;;;10.35;100.00;98015.41;6179388;23;19997;-77
2023/03/13 06:55:47;;;;;;;0.00;0.00;;;;;;;10.26;100.00;97977.13;6209430;23;20446;-78
2023/03/13 06:58:19;;;;;;;0.00;0.00;;;;;;;10.39;99.26;98014.44;6162124;23;20096;-78
2023/03/13 07:00:45;;;;;;;0.00;0.00;;;;;;;10.22;99.14;98015.22;6177878;23;20011;-78
2023/03/13 07:03:11;;;;;;;0.00;0.00;;;;;;;10.21;98.72;97969.91;6178638;23;20033;-78
2023/03/13 07:05:36;;;;;;;0.00;0.00;;;;;;;10.27;99.08;97985.00;6102328;23;20063;-78
2023/03/13 07:08:03;;;;;;;0.00;0.00;;;;;;;10.24;99.32;98040.28;6154119;23;20009;-78
2023/03/13 07:10:31;;;;;;;0.00;0.00;;;;;;;10.35;98.89;98016.19;6150146;23;20009;-76
2023/03/13 07:12:56;;;;;;;0.00;0.00;;;;;;;10.31;99.26;98013.28;6154575;23;20072;-78
2023/03/13 07:15:22;;;;;;;0.00;0.00;;;;;;;10.25;99.41;97976.34;6149360;23;20385;-77
2023/03/13 07:17:47;;;;;;;0.00;0.00;;;;;;;10.23;100.00;97984.03;6149753;23;20092;-77
2023/03/13 07:20:13;;;;;;;0.00;0.00;;;;;;;10.24;100.00;97982.94;6154750;23;20013;-77
2023/03/13 07:22:49;;;;;;;0.00;0.00;;;;;;;10.25;99.88;97986.44;6147202;23;20016;-78
2023/03/13 07:25:21;;;;;;;0.00;0.00;;;;;;;10.23;99.20;97947.75;6151711;23;20084;-78
2023/03/13 07:27:56;;;;;;;0.00;0.00;;;;;;;10.29;98.64;97995.59;6148382;23;20085;-79
2023/03/13 07:30:24;;;;;;;0.00;0.00;;;;;;;10.25;97.95;97965.41;6151814;23;19993;-78
2023/03/13 07:32:50;;;;;;;0.00;0.00;;;;;;;10.30;98.54;97957.03;6150203;23;20089;-78
2023/03/13 07:35:15;;;;;;;0.00;0.00;;;;;;;10.40;98.13;97949.69;6147231;23;20029;-79
2023/03/13 07:38:01;;;;;;;;;;;;;;;;;;;;;
2023/03/13 07:40:29;;;;;;;0.00;0.00;;;;;;;10.19;98.71;97976.81;6179353;23;20108;-79
2023/03/13 07:43:05;;;;;;;0.00;0.00;;;;;;;10.24;97.78;97999.31;6151517;23;20088;-79
2023/03/13 07:45:33;;;;;;;0.00;0.00;;;;;;;10.44;94.67;97953.34;6129916;23;20017;-78
2023/03/13 07:48:01;;;;;;;0.00;0.00;;;;;;;10.34;94.57;97929.94;6152810;23;20009;-80
2023/03/13 07:50:29;;;;;;;0.00;0.00;;;;;;;10.22;97.73;97944.22;6129931;23;20005;-78
2023/03/13 07:53:01;;;;;;;0.00;0.00;;;;;;;10.01;98.67;97993.22;6157618;23;20009;-83
2023/03/13 07:55:30;;;;;;;0.00;0.00;;;;;;;9.85;100.00;97935.56;6150827;23;20013;-80
2023/03/13 07:58:10;;;;;;;;;;;;;;;;;;;;;
2023/03/13 08:00:36;;;;;;;0.00;0.00;;;;;;;9.85;99.74;97951.16;6182584;23;20083;-86
2023/03/13 08:03:12;;;;;;;;;;;;;;;;;;;;;
2023/03/13 08:06:03;;;;;;;0.00;0.00;;;;;;;10.14;97.79;97966.88;6206731;23;20060;-86
2023/03/13 08:08:39;;;;;;;;;;;;;;;;;;;;;
2023/03/13 08:11:10;;;;;;;0.00;0.00;;;;;;;9.76;99.26;97899.31;6210785;23;20079;-85
2023/03/13 08:13:38;;;;;;;0.00;0.00;;;;;;;9.76;98.31;97891.13;6169960;23;20024;-84
2023/03/13 08:16:14;;;;;;;0.00;0.00;;;;;;;10.07;97.61;97925.59;6184617;23;20028;-83
2023/03/13 08:18:43;;;;;;;0.00;0.00;;;;;;;10.13;96.73;97929.75;6182392;23;20000;-81
2023/03/13 08:21:21;;;;;;;0.00;0.00;;;;;;;9.92;99.42;97902.34;6208163;23;20001;-81
2023/03/13 08:23:57;;;;;;;0.00;0.00;;;;;;;9.98;99.78;97952.13;6181994;23;20050;-81
2023/03/13 08:26:26;;;;;;;0.00;0.00;;;;;;;10.09;99.04;97896.84;6177224;23;20047;-82
2023/03/13 08:28:54;;;;;;;0.00;0.00;;;;;;;10.01;99.04;97924.97;6186585;23;20020;-83
2023/03/13 08:31:32;;;;;;;0.00;0.00;;;;;;;9.95;99.30;97934.44;6186949;23;20028;-80
2023/03/13 08:34:06;;;;;;;0.00;0.00;;;;;;;10.05;97.80;97904.09;6188335;23;20016;-84
2023/03/13 08:36:34;;;;;;;0.00;0.00;;;;;;;10.30;96.14;97912.53;6186869;23;20027;-82
2023/03/13 08:59:22;;;;;;;0.00;0.00;;;;;;;11.32;87.46;97946.38;6170788;22;20020;-79
2023/03/13 09:01:48;;;;;;;0.00;0.00;;;;;;;11.63;85.43;97920.56;6185163;23;20055;-79
2023/03/13 09:04:26;;;;;;;0.00;0.00;;;;;;;11.37;84.46;97907.06;6208550;23;20317;-79
2023/03/13 09:06:52;;;;;;;0.00;0.00;;;;;;;10.97;88.05;97910.22;6180470;23;20080;-76
2023/03/13 09:09:22;;;;;;;0.00;0.00;;;;;;;10.63;91.05;97940.13;6181196;23;20305;-77
2023/03/13 09:11:47;;;;;;;0.00;0.00;;;;;;;10.46;92.10;97945.63;6179018;23;20001;-76
2023/03/13 09:14:15;;;;;;;0.00;0.00;;;;;;;10.44;92.10;97939.69;6155901;23;20005;-77
2023/03/13 09:16:40;;;;;;;0.00;0.00;;;;;;;10.61;91.86;97961.50;6208796;23;20075;-77
2023/03/13 09:19:06;;;;;;;0.00;0.00;;;;;;;10.70;90.80;97939.59;6152213;23;20028;-76
2023/03/13 09:21:44;;;;;;;0.00;0.00;;;;;;;10.58;92.62;97934.81;6181255;23;20431;-77
2023/03/13 09:24:11;;;;;;;0.00;0.00;;;;;;;10.18;98.12;97956.09;6179905;23;20005;-77
2023/03/13 09:26:39;;;;;;;0.00;0.00;;;;;;;10.09;100.00;97984.22;6156044;23;20035;-77
2023/03/13 09:29:06;;;;;;;0.00;0.00;;;;;;;10.19;98.29;97950.34;6181276;23;20013;-77
2023/03/13 09:31:34;;;;;;;0.00;0.00;;;;;;;10.27;96.80;97952.22;6128982;23;20012;-75
2023/03/13 09:34:02;;;;;;;0.00;0.00;;;;;;;10.48;95.93;97967.97;6157411;23;20004;-77
2023/03/13 09:36:31;;;;;;;0.00;0.00;;;;;;;10.33;94.86;97939.22;6182546;23;20062;-78
2023/03/13 09:39:01;;;;;;;0.00;0.00;;;;;;;10.44;94.22;97980.66;6182289;23;20000;-77
2023/03/13 09:41:53;;;;;;;0.00;0.00;;;;;;;10.58;92.02;97994.94;6203752;23;20412;-77
2023/03/13 09:44:51;;;;;;;0.00;0.00;;;;;;;10.78;90.41;97944.25;6183675;23;20008;-78
2023/03/13 09:48:01;;;;;;;;;;;;;;;;;;;;;
2023/03/13 09:51:06;;;;;;;0.00;0.00;;;;;;;11.26;86.63;97964.13;6208452;23;20103;-75
2023/03/13 09:53:43;;;;;;;0.00;0.00;;;;;;;11.38;84.66;97940.72;6182619;23;20011;-75
2023/03/13 09:56:15;;;;;;;0.00;0.00;;;;;;;11.70;83.19;97961.88;6205274;23;20432;-76
2023/03/13 09:58:53;;;;;;;0.00;0.00;;;;;;;12.18;80.69;97943.31;6182088;23;20051;-78
2023/03/13 10:01:28;;;;;;;0.00;0.00;;;;;;;12.46;78.63;97958.38;6180772;23;20066;-77
2023/03/13 10:04:13;;;;;;;0.00;0.00;;;;;;;12.47;77.40;97970.91;6181487;23;20009;-76
2023/03/13 10:06:47;;;;;;;0.00;0.00;;;;;;;12.82;76.61;97982.31;6178141;23;19997;-75
2023/03/13 10:09:32;;;;;;;0.00;0.00;;;;;;;12.70;75.26;97961.16;6182053;23;20009;-76
2023/03/13 10:12:04;;;;;;;0.00;0.00;;;;;;;12.79;75.05;98166.75;6201805;23;20051;-76
2023/03/13 10:14:47;;;;;;;0.00;0.00;;;;;;;12.69;75.28;98000.69;6180323;23;20055;-76
2023/03/13 10:17:27;;;;;;;0.00;0.00;;;;;;;12.65;76.05;97966.84;6176791;23;20013;-77
2023/03/13 10:20:15;;;;;;;0.00;0.00;;;;;;;13.13;74.32;97985.63;6207208;23;20486;-78
2023/03/13 10:22:47;;;;;;;0.00;0.00;;;;;;;13.25;73.35;97950.78;6177909;23;20315;-77
2023/03/13 10:25:31;;;;;;;0.00;0.00;;;;;;;13.84;71.65;97978.06;6156746;23;20119;-74
2023/03/13 10:28:02;;;;;;;0.00;0.00;;;;;;;13.50;71.23;97967.25;6175334;23;20154;-75
2023/03/13 10:30:30;;;;;;;0.00;0.00;;;;;;;12.88;73.50;97985.63;6211039;23;20005;-77
2023/03/13 10:33:23;;;;;;;0.00;0.00;;;;;;;12.28;79.41;97985.94;6177270;23;20001;-77
2023/03/13 10:36:04;;;;;;;0.00;0.00;;;;;;;12.02;81.25;98006.13;6194160;23;20812;-79
2023/03/13 10:38:34;;;;;;;0.00;0.00;;;;;;;11.82;80.13;97963.09;6185477;23;20001;-80
2023/03/13 10:41:18;;;;;;;0.00;0.00;;;;;;;11.90;79.84;97958.69;6181314;23;20005;-77
2023/03/13 10:43:57;;;;;;;0.00;0.00;;;;;;;11.76;82.07;97970.72;6207705;23;19997;-78
2023/03/13 10:46:32;;;;;;;0.00;0.00;;;;;;;11.40;84.54;97985.75;6181843;23;20004;-78
2023/03/13 10:49:03;;;;;;;0.00;0.00;;;;;;;11.30;84.27;97978.75;6184328;23;20008;-78
2023/03/13 10:51:47;;;;;;;0.00;0.00;;;;;;;11.41;83.55;97964.69;6181764;23;20001;-77
2023/03/13 10:54:26;;;;;;;0.00;0.00;;;;;;;11.73;81.99;97962.38;6180052;23;20412;-77
2023/03/13 10:57:26;;;;;;;0.00;0.00;;;;;;;12.16;81.09;97975.75;6183733;23;20009;-77
2023/03/13 10:59:53;;;;;;;0.00;0.00;;;;;;;13.24;74.25;97970.31;6186317;23;20047;-77
2023/03/13 11:02:21;;;;;;;0.00;0.00;;;;;;;13.03;75.80;97960.25;6183671;23;20024;-78
2023/03/13 11:04:52;;;;;;;0.00;0.00;;;;;;;13.55;73.96;97946.97;6185308;23;20005;-78
2023/03/13 11:07:36;;;;;;;0.00;0.00;;;;;;;13.94;71.03;97937.19;6159113;23;20066;-76
2023/03/13 11:10:24;;;;;;;;;;;;;;;14.08;70.66;97947.75;6185598;23;20007;-77
2023/03/13 11:12:54;;;;;;;0.00;0.00;;;;;;;14.92;68.77;97972.75;6187261;23;19904;-78
2023/03/13 11:15:28;;;;;;;0.00;0.00;;;;;;;17.18;60.55;97943.53;6183365;23;20072;-76
2023/03/13 11:18:01;;;;;;;;;;;;;;;17.55;57.48;97937.38;6184810;23;20005;-77
2023/03/13 11:20:36;;;;;;;0.00;0.00;;;;;;;16.62;58.50;97941.38;6211647;23;20227;-78
2023/03/13 11:23:34;;;;;;;0.00;0.00;;;;;;;17.24;56.85;97925.50;6181343;23;20075;-77
2023/03/13 11:26:00;;;;;;;0.00;0.00;;;;;;;16.76;57.20;97949.91;6181008;23;20004;-75
2023/03/13 11:28:28;;;;;;;0.00;0.00;;;;;;;15.99;60.36;97948.84;6182892;23;20004;-76
2023/03/13 11:31:45;;;;;;;0.00;0.00;;;;;;;16.34;59.58;97945.19;6184145;23;20001;-77
2023/03/13 11:34:10;;;;;;;0.00;0.00;;;;;;;15.15;63.96;97932.44;6151513;23;20061;-78
2023/03/13 11:36:52;;;;;;;0.00;0.00;;;;;;;15.33;63.24;97959.59;6185785;23;20005;-78
2023/03/13 11:40:05;;;;;;;0.00;0.00;;;;;;;16.11;59.90;97936.88;6182946;23;20419;-78
2023/03/13 11:43:22;;;;;;;0.00;0.00;;;;;;;14.71;63.94;97951.81;6183666;23;20008;-78
2023/03/13 11:45:59;;;;;;;0.00;0.00;;;;;;;14.36;67.49;97963.44;6105013;23;20419;-78
2023/03/13 11:49:11;;;;;;;0.00;0.00;;;;;;;14.32;67.82;97940.53;6178882;23;20095;-78
2023/03/13 11:52:31;;;;;;;0.00;0.00;;;;;;;13.54;70.94;97929.72;6184700;23;20078;-77
2023/03/13 11:55:17;;;;;;;0.00;0.00;;;;;;;12.33;78.17;97950.09;6186593;23;20001;-77
2023/03/13 11:58:10;;;;;;;0.00;0.00;;;;;;;11.86;81.52;97955.81;6180325;23;20084;-77
2023/03/13 12:00:46;;;;;;;0.00;0.00;;;;;;;12.13;81.26;97953.69;6185839;23;20513;-77
2023/03/13 12:03:19;;;;;;;0.00;0.00;;;;;;;11.97;81.09;97894.06;6177374;23;20012;-77
2023/03/13 12:05:52;;;;;;;0.00;0.00;;;;;;;12.36;78.69;97923.97;6187348;23;20039;-80
2023/03/13 12:08:27;;;;;;;0.00;0.00;;;;;;;12.61;77.39;97918.53;6187551;23;20040;-77
2023/03/13 12:11:11;;;;;;;0.00;0.00;;;;;;;12.74;75.06;97973.03;6178420;23;20081;-78
2023/03/13 12:14:01;;;;;;;0.00;0.00;;;;;;;12.77;73.77;97885.75;6184226;23;20054;-77
2023/03/13 12:16:44;;;;;;;0.00;0.00;;;;;;;12.96;73.08;97898.91;6183305;23;19997;-78
2023/03/13 12:19:13;;;;;;;0.00;0.00;;;;;;;12.93;73.55;97911.34;6179727;23;20450;-77
2023/03/13 12:21:55;;;;;;;0.00;0.00;;;;;;;12.69;73.62;97912.16;6182893;23;20092;-78
2023/03/13 12:24:26;;;;;;;0.00;0.00;;;;;;;12.36;75.27;97907.50;6178492;23;20015;-78
2023/03/13 12:27:13;;;;;;;0.10;0.10;;;;;;;11.89;78.74;97925.03;6181961;23;20068;-78
2023/03/13 12:30:03;;;;;;;0.00;0.00;;;;;;;11.38;84.00;97938.78;6182701;23;19997;-78
2023/03/13 12:33:12;;;;;;;0.00;0.00;;;;;;;11.10;85.53;97894.72;6178042;23;20028;-78
2023/03/13 12:35:43;;;;;;;0.00;0.00;;;;;;;10.93;86.26;97912.00;6206894;23;20001;-78
2023/03/13 12:38:29;;;;;;;0.00;0.00;;;;;;;11.10;87.77;97919.34;6180792;23;20004;-78
2023/03/13 12:41:12;;;;;;;0.00;0.00;;;;;;;10.91;88.44;97923.28;6179695;23;20001;-78